Wind from 348 at 2 knots gusting 2

Air temperature 16.7° C
Dewpoint 9.1° C

Last reported at 2014-Apr-23 08:37 UTC.
Time now 2014-Apr-23 09:20 UTC

Location: N 28°23' W 016°31'.
View on Google Maps.

See reports from other nearby stations

Tides Stations Pressure Air Temp Water Temp Dewpoint Dewpoint depression Visibility Wind Speed Wind Dir Waves Ship positions

  
sailing weather and tide predictions

CW3847 La Orotava ES weather

date/time (UTC)wind fromknots sea level pressurealtimeterstation pressurevisibilityair tempwater tempwave heightnotes
2014-Apr-23 08:37 348 2 gusting 2 16.7
2014-Apr-23 08:27 017 1 gusting 2 16.7
2014-Apr-23 08:07 275 16.1
2014-Apr-23 07:57 202 0 gusting 0 15.0
2014-Apr-23 07:47 202 0 gusting 0 13.9
2014-Apr-23 07:27 191 2 gusting 4 12.8
2014-Apr-23 06:47 217 2 gusting 2 12.8
2014-Apr-23 06:27 181 1 gusting 3 12.8
2014-Apr-23 06:17 184 2 gusting 3 12.8
2014-Apr-23 06:07 180 2 gusting 3 12.8
2014-Apr-23 05:57 164 2 gusting 5 12.2
2014-Apr-23 05:37 167 3 gusting 5 12.8
2014-Apr-23 05:17 160 2 gusting 4 12.8
2014-Apr-23 04:57 179 2 gusting 4 12.2
2014-Apr-23 04:37 161 5 gusting 6 12.2
2014-Apr-23 04:27 173 3 gusting 5 12.2
2014-Apr-23 03:47 175 4 gusting 6 12.8
2014-Apr-23 02:47 180 3 gusting 4 12.8
2014-Apr-23 02:27 149 2 gusting 4 12.8
2014-Apr-23 01:47 158 2 gusting 3 12.8
2014-Apr-23 01:17 166 2 gusting 3 13.3
2014-Apr-23 00:17 171 2 gusting 3 13.3
2014-Apr-23 00:07 160 2 gusting 4 13.3
2014-Apr-22 23:57 165 4 gusting 4 13.3
2014-Apr-22 23:47 169 1 gusting 3 13.3
2014-Apr-22 23:37 171 2 gusting 3 13.3
2014-Apr-22 23:27 150 2 gusting 2 13.3
2014-Apr-22 23:07 192 4 gusting 6 13.3
2014-Apr-22 22:57 152 2 gusting 5 13.9
2014-Apr-22 22:47 150 1 gusting 3 13.9
2014-Apr-22 22:37 178 2 gusting 5 13.9
2014-Apr-22 21:57 190 2 gusting 3 15.0
2014-Apr-22 21:47 169 0 gusting 2 15.0
2014-Apr-22 21:37 164 0 gusting 2 15.0
2014-Apr-22 21:07 148 2 gusting 4 14.4
2014-Apr-22 20:47 192 1 gusting 3 15.0
2014-Apr-22 20:37 173 1 gusting 2 15.0
2014-Apr-22 20:27 169 1 gusting 2 15.6
2014-Apr-22 20:17 345 15.6
2014-Apr-22 20:07 325 1 gusting 1 15.6
2014-Apr-22 19:47 034 0 gusting 1 16.1
2014-Apr-22 19:27 348 2 gusting 2 16.1
2014-Apr-22 18:47 028 2 gusting 2 16.7
2014-Apr-22 18:37 341 0 gusting 2 16.7
2014-Apr-22 18:17 355 2 gusting 3 16.7
2014-Apr-22 18:07 337 2 gusting 4 16.7
2014-Apr-22 17:57 360 0 gusting 2 16.7
2014-Apr-22 17:47 325 2 gusting 2 17.2
2014-Apr-22 17:07 005 0 gusting 5 17.2
2014-Apr-22 16:57 350 2 gusting 6 17.2
2014-Apr-22 16:37 355 17.2
2014-Apr-22 16:27 344 1 gusting 2 17.2
2014-Apr-22 16:17 026 2 gusting 2 17.2
2014-Apr-22 16:07 064 0 gusting 2 16.7
2014-Apr-22 15:57 005 1 gusting 2 16.7
2014-Apr-22 15:47 021 1 gusting 5 16.7
2014-Apr-22 15:07 355 2 gusting 2 16.7
2014-Apr-22 14:37 041 1 gusting 2 16.7
2014-Apr-22 14:27 355 2 gusting 3 16.7
2014-Apr-22 14:17 021 2 gusting 2 16.7
2014-Apr-22 13:57 012 3 gusting 6 16.7
2014-Apr-22 13:47 323 3 gusting 3 16.7
2014-Apr-22 13:37 038 1 gusting 5 16.7
2014-Apr-22 12:27 335 6 gusting 6 16.7
2014-Apr-22 12:17 317 3 gusting 6 17.2
2014-Apr-22 12:07 311 3 gusting 3 17.2
2014-Apr-22 10:57 349 3 gusting 6 18.3
2014-Apr-22 10:27 063 0 gusting 2 17.8
2014-Apr-22 10:17 326 2 gusting 4 17.8
2014-Apr-22 10:07 319 3 gusting 4 17.8
2014-Apr-22 09:47 343 2 gusting 3 17.2
2014-Apr-22 09:17 015 2 gusting 3 17.2
2014-Apr-22 08:57 194 16.7
2014-Apr-22 08:47 194 1 gusting 1 16.1
2014-Apr-22 08:27 157 1 gusting 1 15.0
2014-Apr-22 08:17 157 1 gusting 1 15.0
2014-Apr-22 07:27 130 5 gusting 6 13.3
2014-Apr-22 06:57 169 2 gusting 4 12.8
2014-Apr-22 06:47 178 4 gusting 7 12.8
2014-Apr-22 06:17 164 5 gusting 8 12.8
2014-Apr-22 05:47 156 3 gusting 4 12.8
2014-Apr-22 05:17 175 2 gusting 4 13.3
2014-Apr-22 04:37 182 2 gusting 3 14.4
2014-Apr-22 04:17 161 15.0
2014-Apr-22 04:07 161 0 gusting 1 14.4
2014-Apr-22 03:57 160 1 gusting 1 14.4
2014-Apr-22 03:37 178 1 gusting 2 14.4
2014-Apr-22 03:27 165 2 gusting 3 14.4
2014-Apr-22 03:07 182 0 gusting 1 14.4
2014-Apr-22 02:57 178 0 gusting 2 14.4
2014-Apr-22 02:47 183 2 gusting 2 14.4
2014-Apr-22 02:17 186 1 gusting 2 15.0
2014-Apr-22 01:57 197 0 gusting 1 15.0
2014-Apr-22 01:37 315 15.0
2014-Apr-22 01:27 315 0 gusting 1 15.0
2014-Apr-22 01:17 323 15.0
2014-Apr-22 01:07 194 0 gusting 2 15.0
2014-Apr-22 00:47 163 0 gusting 0 15.6
2014-Apr-22 00:37 144 2 gusting 3 15.6
2014-Apr-22 00:27 180 1 gusting 3 15.6
2014-Apr-22 00:17 165 1 gusting 3 15.6
2014-Apr-22 00:07 142 0 gusting 2 15.6
2014-Apr-21 23:47 194 15.6
2014-Apr-21 23:27 166 2 gusting 2 15.6
2014-Apr-21 23:07 034 1 gusting 3 15.6
2014-Apr-21 22:47 009 2 gusting 3 15.6
2014-Apr-21 22:37 360 2 gusting 2 15.6
2014-Apr-21 22:27 344 1 gusting 2 15.6
2014-Apr-21 22:07 104 0 gusting 1 15.6
2014-Apr-21 21:47 009 1 gusting 2 15.6
2014-Apr-21 21:07 026 1 gusting 1 16.1
2014-Apr-21 20:47 355 1 gusting 2 16.1
2014-Apr-21 20:37 031 1 gusting 2 16.1
2014-Apr-21 20:27 032 16.1
2014-Apr-21 20:17 028 1 gusting 2 16.1
2014-Apr-21 19:47 036 1 gusting 2 16.1
2014-Apr-21 19:37 355 2 gusting 2 16.1
2014-Apr-21 19:17 360 2 gusting 3 16.7
2014-Apr-21 19:07 023 1 gusting 2 16.7
2014-Apr-21 18:57 355 1 gusting 2 16.7
2014-Apr-21 18:37 296 1 gusting 2 16.7
2014-Apr-21 18:27 336 2 gusting 2 16.7
2014-Apr-21 18:17 355 1 gusting 2 16.7
2014-Apr-21 17:57 339 2 gusting 2 16.7
2014-Apr-21 17:47 042 2 gusting 5 17.2
2014-Apr-21 17:27 035 2 gusting 3 17.2
2014-Apr-21 17:17 294 2 gusting 3 17.2
2014-Apr-21 16:57 355 1 gusting 5 17.8
2014-Apr-21 16:47 017 6 gusting 6 17.8
2014-Apr-21 16:17 268 1 gusting 3 17.2
2014-Apr-21 16:07 355 2 gusting 2 17.2
2014-Apr-21 15:47 075 3 gusting 4 17.8
2014-Apr-21 15:37 028 3 gusting 5 18.3
2014-Apr-21 15:27 014 2 gusting 6 17.8
2014-Apr-21 15:17 013 5 gusting 7 18.3
2014-Apr-21 14:57 028 6 gusting 7 18.9
2014-Apr-21 14:17 327 2 gusting 6 18.9
2014-Apr-21 13:57 333 2 gusting 6 18.9
2014-Apr-21 13:37 260 2 gusting 4 18.9
2014-Apr-21 13:07 297 1 gusting 6 17.8
2014-Apr-21 12:57 304 2 gusting 7 18.3
2014-Apr-21 12:17 337 1 gusting 6 17.8
2014-Apr-21 11:57 355 1 gusting 2 17.2
2014-Apr-21 11:47 289 2 gusting 3 17.2
2014-Apr-21 11:37 327 3 gusting 6 17.2
2014-Apr-21 11:27 263 1 gusting 2 17.2
2014-Apr-21 10:57 360 6 gusting 8 17.2
2014-Apr-21 09:27 005 2 gusting 2 16.7
2014-Apr-21 09:17 293 0 gusting 4 16.7